createdAt,value
2018-09-08T00:02:27.196Z,11.94
2018-09-08T00:04:56.667Z,11.95
2018-09-08T00:07:30.562Z,11.96
2018-09-08T00:09:59.603Z,12.01
2018-09-08T00:12:28.379Z,12.03
2018-09-08T00:14:56.420Z,12.07
2018-09-08T00:17:30.415Z,12.10
2018-09-08T00:20:04.338Z,12.14
2018-09-08T00:22:38.513Z,12.18
2018-09-08T00:25:12.447Z,12.20
2018-09-08T00:27:42.622Z,12.23
2018-09-08T00:30:13.641Z,12.32
2018-09-08T00:32:44.612Z,12.30
2018-09-08T00:35:13.389Z,12.32
2018-09-08T00:37:42.851Z,12.36
2018-09-08T00:40:12.133Z,12.38
2018-09-08T00:42:40.863Z,12.38
2018-09-08T00:45:09.638Z,12.40
2018-09-08T00:47:38.466Z,12.41
2018-09-08T00:50:07.168Z,12.42
2018-09-08T00:52:42.426Z,12.44
2018-09-08T00:55:11.182Z,12.43
2018-09-08T00:57:40.537Z,12.44
2018-09-08T01:00:10.196Z,12.43
2018-09-08T01:02:39.574Z,12.41
2018-09-08T01:05:08.411Z,12.42
2018-09-08T01:07:37.165Z,12.45
2018-09-08T01:10:06.206Z,12.45
2018-09-08T01:12:40.296Z,12.48
2018-09-08T01:15:09.940Z,12.49
2018-09-08T01:17:38.925Z,12.49
2018-09-08T01:20:07.702Z,12.48
2018-09-08T01:22:37.540Z,12.48
2018-09-08T01:25:07.385Z,12.46
2018-09-08T01:27:36.139Z,12.47
2018-09-08T01:30:05.512Z,12.46
2018-09-08T01:32:34.285Z,12.46
2018-09-08T01:35:03.010Z,12.44
2018-09-08T01:37:31.972Z,12.49
2018-09-08T01:40:00.726Z,12.51
2018-09-08T01:42:29.747Z,12.51
2018-09-08T01:44:58.486Z,12.55
2018-09-08T01:47:27.765Z,12.57
2018-09-08T01:49:56.534Z,12.56
2018-09-08T01:52:25.324Z,12.52
2018-09-08T01:54:54.043Z,12.54
2018-09-08T01:57:23.431Z,12.53
2018-09-08T01:59:52.441Z,12.56
2018-09-08T02:02:21.223Z,12.58
2018-09-08T02:04:49.989Z,12.60
2018-09-08T02:07:19.350Z,12.61
2018-09-08T02:09:48.398Z,12.60
2018-09-08T02:12:17.722Z,12.62
2018-09-08T02:14:46.743Z,12.60
2018-09-08T02:17:15.717Z,12.59
2018-09-08T02:19:44.485Z,12.58
2018-09-08T02:22:13.799Z,12.57
2018-09-08T02:24:42.739Z,12.55
2018-09-08T02:27:11.528Z,12.56
2018-09-08T02:29:40.334Z,12.55
2018-09-08T02:32:09.110Z,12.53
2018-09-08T02:34:38.446Z,12.50
2018-09-08T02:37:07.200Z,12.47
2018-09-08T02:39:36.250Z,12.42
2018-09-08T02:42:05.032Z,12.40
2018-09-08T02:44:34.415Z,12.35
2018-09-08T02:47:10.408Z,12.31
2018-09-08T02:49:50.659Z,12.30
2018-09-08T02:52:18.299Z,12.27
2018-09-08T02:54:45.998Z,12.22
2018-09-08T02:57:13.380Z,12.20
2018-09-08T02:59:40.775Z,12.19
2018-09-08T03:02:08.594Z,12.20
2018-09-08T03:04:36.218Z,12.19
2018-09-08T03:07:07.754Z,12.18
2018-09-08T03:09:35.523Z,12.15
2018-09-08T03:12:03.238Z,12.11
2018-09-08T03:14:30.900Z,12.11
2018-09-08T03:16:58.651Z,12.10
2018-09-08T03:19:26.408Z,12.11
2018-09-08T03:21:53.849Z,12.08
2018-09-08T03:24:21.240Z,12.04
2018-09-08T03:26:48.647Z,12.07
2018-09-08T03:29:16.071Z,12.07
2018-09-08T03:31:43.513Z,12.10
2018-09-08T03:34:11.581Z,12.05
2018-09-08T03:36:39.303Z,12.10
2018-09-08T03:39:06.720Z,12.10
2018-09-08T03:41:34.692Z,12.12
2018-09-08T03:44:02.104Z,12.14
2018-09-08T03:46:30.029Z,12.16
2018-09-08T03:48:57.463Z,12.19
2018-09-08T03:51:25.169Z,12.23
2018-09-08T03:53:52.594Z,12.28
2018-09-08T03:56:20.342Z,12.28
2018-09-08T03:58:47.789Z,12.30
2018-09-08T04:01:15.568Z,12.34
2018-09-08T04:03:44.286Z,12.35
2018-09-08T04:06:13.269Z,12.36
2018-09-08T04:08:42.296Z,12.36
2018-09-08T04:11:11.099Z,12.36
2018-09-08T04:13:40.072Z,12.38
2018-09-08T04:16:09.070Z,12.38
2018-09-08T04:18:38.502Z,12.39
2018-09-08T04:21:07.584Z,12.40
2018-09-08T04:23:37.296Z,12.42
2018-09-08T04:26:06.111Z,12.44
2018-09-08T04:28:34.868Z,12.46
2018-09-08T04:31:04.724Z,12.48
2018-09-08T04:33:34.205Z,12.47
2018-09-08T04:36:03.533Z,12.48
2018-09-08T04:38:33.071Z,12.51
2018-09-08T04:41:02.180Z,12.52
2018-09-08T04:43:30.872Z,12.51
2018-09-08T04:45:59.963Z,12.54
2018-09-08T04:48:29.607Z,12.51
2018-09-08T04:50:58.752Z,12.53
2018-09-08T04:53:27.772Z,12.52
2018-09-08T04:55:56.781Z,12.53
2018-09-08T04:58:25.542Z,12.53
2018-09-08T05:00:54.269Z,12.53
2018-09-08T05:03:23.010Z,12.50
2018-09-08T05:05:52.303Z,12.44
2018-09-08T05:08:21.495Z,12.43
2018-09-08T05:10:50.518Z,12.36
2018-09-08T05:13:25.833Z,12.34
2018-09-08T05:15:54.843Z,12.30
2018-09-08T05:18:23.619Z,12.28
2018-09-08T05:20:52.597Z,12.25
2018-09-08T05:23:21.613Z,12.27
2018-09-08T05:25:51.107Z,12.27
2018-09-08T05:28:20.129Z,12.25
2018-09-08T05:30:48.885Z,12.26
2018-09-08T05:33:17.869Z,12.25
2018-09-08T05:35:46.657Z,12.23
2018-09-08T05:38:15.637Z,12.22
2018-09-08T05:40:45.019Z,12.26
2018-09-08T05:43:13.779Z,12.27
2018-09-08T05:45:43.564Z,12.28
2018-09-08T05:48:12.273Z,12.34
2018-09-08T05:50:41.059Z,12.36
2018-09-08T05:53:09.799Z,12.39
2018-09-08T05:55:38.553Z,12.39
2018-09-08T05:58:07.592Z,12.42
2018-09-08T06:00:36.316Z,12.39
2018-09-08T06:03:05.342Z,12.40
2018-09-08T06:05:34.106Z,12.42
2018-09-08T06:08:02.895Z,12.47
2018-09-08T06:10:31.895Z,12.51
2018-09-08T06:13:01.187Z,12.56
2018-09-08T06:15:29.958Z,12.64
2018-09-08T06:17:59.041Z,12.69
2018-09-08T06:20:27.774Z,12.74
2018-09-08T06:22:57.207Z,12.78
2018-09-08T06:25:26.487Z,12.80
2018-09-08T06:27:55.747Z,12.83
2018-09-08T06:30:24.627Z,12.86
2018-09-08T06:32:53.951Z,12.87
2018-09-08T06:35:22.865Z,12.90
2018-09-08T06:37:51.800Z,12.93
2018-09-08T06:40:20.812Z,12.96
2018-09-08T06:42:52.836Z,13.00
2018-09-08T06:45:22.858Z,13.08
2018-09-08T06:47:51.665Z,13.20
2018-09-08T06:50:20.792Z,13.32
2018-09-08T06:52:50.483Z,13.46
2018-09-08T06:55:19.856Z,13.56
2018-09-08T06:57:48.932Z,13.68
2018-09-08T07:00:17.856Z,13.77
2018-09-08T07:02:46.654Z,13.90
2018-09-08T07:05:15.370Z,14.03
2018-09-08T07:07:44.567Z,14.09
2018-09-08T07:10:13.612Z,14.17
2018-09-08T07:12:42.541Z,14.23
2018-09-08T07:15:11.555Z,14.33
2018-09-08T07:17:40.654Z,14.46
2018-09-08T07:20:09.395Z,14.58
2018-09-08T07:22:38.126Z,14.70
2018-09-08T07:25:07.933Z,14.85
2018-09-08T07:27:36.744Z,14.97
2018-09-08T07:30:05.724Z,15.10
2018-09-08T07:32:34.510Z,15.22
2018-09-08T07:35:03.588Z,15.31
2018-09-08T07:37:33.339Z,15.36
2018-09-08T07:40:02.486Z,15.46
2018-09-08T07:42:31.232Z,15.59
2018-09-08T07:44:59.997Z,15.71
2018-09-08T07:47:28.769Z,15.85
2018-09-08T07:49:58.185Z,15.98
2018-09-08T07:52:26.938Z,16.10
2018-09-08T07:54:56.206Z,16.19
2018-09-08T07:57:25.199Z,16.28
2018-09-08T07:59:54.264Z,16.40
2018-09-08T08:02:23.927Z,16.51
2018-09-08T08:04:53.343Z,16.61
2018-09-08T08:07:22.808Z,16.75
2018-09-08T08:09:51.817Z,16.92
2018-09-08T08:12:21.658Z,17.00
2018-09-08T08:14:50.794Z,17.05
2018-09-08T08:17:19.970Z,17.13
2018-09-08T08:19:48.776Z,17.26
2018-09-08T08:22:17.571Z,17.43
2018-09-08T08:24:46.643Z,17.53
2018-09-08T08:27:15.786Z,17.64
2018-09-08T08:29:44.798Z,17.72
2018-09-08T08:32:13.840Z,17.84
2018-09-08T08:34:42.980Z,17.95
2018-09-08T08:37:12.101Z,18.08
2018-09-08T08:39:40.869Z,18.16
2018-09-08T08:42:16.381Z,18.21
2018-09-08T08:44:45.170Z,18.31
2018-09-08T08:47:13.930Z,18.48
2018-09-08T08:49:43.015Z,18.57
2018-09-08T08:52:22.777Z,18.64
2018-09-08T08:54:55.519Z,18.69
2018-09-08T08:57:24.251Z,18.81
2018-09-08T08:59:53.419Z,18.94
2018-09-08T09:02:22.137Z,19.05
2018-09-08T09:04:51.348Z,19.13
2018-09-08T09:07:20.460Z,19.18
2018-09-08T09:09:49.688Z,19.24
2018-09-08T09:12:18.791Z,19.19
2018-09-08T09:14:47.781Z,19.18
2018-09-08T09:17:16.528Z,19.34
2018-09-08T09:19:56.949Z,19.45
2018-09-08T09:22:36.847Z,19.48
2018-09-08T09:25:07.885Z,19.53
2018-09-08T09:27:38.083Z,19.57
2018-09-08T09:30:07.934Z,19.57
2018-09-08T09:32:36.641Z,19.53
2018-09-08T09:35:06.367Z,19.40
2018-09-08T09:37:35.520Z,19.43
2018-09-08T09:40:04.863Z,19.45
2018-09-08T09:42:33.670Z,19.45
2018-09-08T09:45:02.400Z,19.42
2018-09-08T09:47:31.648Z,19.43
2018-09-08T09:50:00.418Z,19.46
2018-09-08T09:52:29.806Z,19.45
2018-09-08T09:54:59.686Z,19.53
2018-09-08T09:57:28.471Z,19.59
2018-09-08T09:59:57.822Z,19.51
2018-09-08T10:02:42.487Z,19.51
2018-09-08T10:05:13.399Z,19.46
2018-09-08T10:07:42.502Z,19.50
2018-09-08T10:10:13.618Z,19.57
2018-09-08T10:12:43.036Z,19.77
2018-09-08T10:15:12.414Z,19.91
2018-09-08T10:17:42.330Z,20.10
2018-09-08T10:20:14.180Z,20.26
2018-09-08T10:22:43.250Z,20.34
2018-09-08T10:25:14.337Z,20.21
2018-09-08T10:27:43.926Z,20.18
2018-09-08T10:30:13.822Z,20.09
2018-09-08T10:32:43.700Z,20.04
2018-09-08T10:35:12.782Z,19.88
2018-09-08T10:37:41.845Z,19.72
2018-09-08T10:40:12.603Z,19.65
2018-09-08T10:42:41.927Z,19.69
2018-09-08T10:45:10.792Z,19.64
2018-09-08T10:47:40.331Z,19.34
2018-09-08T10:50:10.364Z,19.22
2018-09-08T10:52:42.127Z,19.06
2018-09-08T10:55:11.127Z,18.89
2018-09-08T10:57:40.193Z,18.80
2018-09-08T11:00:09.905Z,18.74
2018-09-08T11:02:38.834Z,18.81
2018-09-08T11:05:07.570Z,18.91
2018-09-08T11:07:36.641Z,18.91
2018-09-08T11:10:06.000Z,18.96
2018-09-08T11:12:35.083Z,18.86
2018-09-08T11:15:03.901Z,18.71
2018-09-08T11:17:33.144Z,18.77
2018-09-08T11:20:01.969Z,18.83
2018-09-08T11:22:30.747Z,18.92
2018-09-08T11:24:59.519Z,18.97
2018-09-08T11:27:28.505Z,18.94
2018-09-08T11:29:57.613Z,18.96
2018-09-08T11:32:26.363Z,18.85
2018-09-08T11:34:55.159Z,18.87
2018-09-08T11:37:24.473Z,18.84
2018-09-08T11:39:58.252Z,18.84
2018-09-08T11:42:27.020Z,18.90
2018-09-08T11:44:56.384Z,19.04
2018-09-08T11:47:25.057Z,19.19
2018-09-08T11:49:54.157Z,19.37
2018-09-08T11:52:23.220Z,19.56
2018-09-08T11:54:51.973Z,19.70
2018-09-08T11:57:21.537Z,19.76
2018-09-08T11:59:50.653Z,19.76
2018-09-08T12:02:19.826Z,19.78
2018-09-08T12:04:48.577Z,19.71
2018-09-08T12:07:17.408Z,19.64
2018-09-08T12:09:46.502Z,19.53
2018-09-08T12:12:15.979Z,19.52
2018-09-08T12:14:45.034Z,19.53
2018-09-08T12:17:13.755Z,19.56
2018-09-08T12:19:42.563Z,19.60
2018-09-08T12:22:11.461Z,19.62
2018-09-08T12:24:40.393Z,19.75
2018-09-08T12:27:09.476Z,19.82
2018-09-08T12:29:38.499Z,19.85
2018-09-08T12:32:07.768Z,19.85
2018-09-08T12:34:36.545Z,20.08
2018-09-08T12:37:05.703Z,20.21
2018-09-08T12:39:34.660Z,20.29
2018-09-08T12:42:03.370Z,20.40
2018-09-08T12:44:32.168Z,20.60
2018-09-08T12:47:00.927Z,20.70
2018-09-08T12:49:29.715Z,20.84
2018-09-08T12:51:58.794Z,21.02
2018-09-08T12:54:27.535Z,21.26
2018-09-08T12:56:56.827Z,21.45
2018-09-08T12:59:25.553Z,21.41
2018-09-08T13:01:54.741Z,21.26
2018-09-08T13:04:23.483Z,21.38
2018-09-08T13:06:52.554Z,21.59
2018-09-08T13:09:21.705Z,21.95
2018-09-08T13:11:50.628Z,22.20
2018-09-08T13:14:19.378Z,22.29
2018-09-08T13:16:49.317Z,22.23
2018-09-08T13:19:18.339Z,22.44
2018-09-08T13:21:47.333Z,22.41
2018-09-08T13:24:16.099Z,22.45
2018-09-08T13:26:44.829Z,22.50
2018-09-08T13:29:13.601Z,22.35
2018-09-08T13:31:42.715Z,22.42
2018-09-08T13:34:11.783Z,22.56
2018-09-08T13:36:40.548Z,22.72
2018-09-08T13:39:10.226Z,22.86
2018-09-08T13:41:38.939Z,22.96
2018-09-08T13:44:08.308Z,22.90
2018-09-08T13:46:37.027Z,22.86
2018-09-08T13:49:06.171Z,22.63
2018-09-08T13:51:35.001Z,22.54
2018-09-08T13:54:03.728Z,22.30
2018-09-08T13:56:32.708Z,22.25
2018-09-08T13:59:01.462Z,22.26
2018-09-08T14:01:30.191Z,22.20
2018-09-08T14:03:59.378Z,22.24
2018-09-08T14:06:28.126Z,22.27
2018-09-08T14:08:56.858Z,22.27
2018-09-08T14:11:25.565Z,22.38
2018-09-08T14:13:54.335Z,22.66
2018-09-08T14:16:23.402Z,22.67
2018-09-08T14:18:52.675Z,22.63
2018-09-08T14:21:22.089Z,22.44
2018-09-08T14:23:50.807Z,22.29
2018-09-08T14:26:19.591Z,22.25
2018-09-08T14:28:48.337Z,22.14
2018-09-08T14:31:17.104Z,22.30
2018-09-08T14:33:45.918Z,22.34
2018-09-08T14:36:15.290Z,22.38
2018-09-08T14:38:44.063Z,22.33
2018-09-08T14:41:13.350Z,22.20
2018-09-08T14:43:42.075Z,22.05
2018-09-08T14:46:11.142Z,21.90
2018-09-08T14:48:39.875Z,21.73
2018-09-08T14:51:08.627Z,21.55
2018-09-08T14:53:37.613Z,21.32
2018-09-08T14:56:07.131Z,21.23
2018-09-08T14:58:35.872Z,21.24
2018-09-08T15:01:04.867Z,21.27
2018-09-08T15:03:33.815Z,21.13
2018-09-08T15:06:02.582Z,21.00
2018-09-08T15:08:31.658Z,20.83
2018-09-08T15:11:00.408Z,20.70
2018-09-08T15:13:29.885Z,20.66
2018-09-08T15:15:59.667Z,20.59
2018-09-08T15:18:28.649Z,20.56
2018-09-08T15:20:58.706Z,20.49
2018-09-08T15:23:28.453Z,20.44
2018-09-08T15:25:57.494Z,20.39
2018-09-08T15:28:27.005Z,20.38
2018-09-08T15:30:56.099Z,20.36
2018-09-08T15:33:25.150Z,20.26
2018-09-08T15:35:53.898Z,20.25
2018-09-08T15:38:23.797Z,20.17
2018-09-08T15:40:52.836Z,20.08
2018-09-08T15:43:21.886Z,20.00
2018-09-08T15:45:50.929Z,19.89
2018-09-08T15:48:20.139Z,19.87
2018-09-08T15:50:48.901Z,19.90
2018-09-08T15:53:18.170Z,19.87
2018-09-08T15:55:47.174Z,19.92
2018-09-08T15:58:15.982Z,19.91
2018-09-08T16:00:44.707Z,19.88
2018-09-08T16:03:13.711Z,19.72
2018-09-08T16:05:42.760Z,19.64
2018-09-08T16:08:12.062Z,19.45
2018-09-08T16:10:40.774Z,19.36
2018-09-08T16:13:09.536Z,19.33
2018-09-08T16:15:38.668Z,19.23
2018-09-08T16:18:07.415Z,19.18
2018-09-08T16:20:36.499Z,19.06
2018-09-08T16:23:05.503Z,18.99
2018-09-08T16:25:40.927Z,18.95
2018-09-08T16:28:10.124Z,18.90
2018-09-08T16:30:38.827Z,18.84
2018-09-08T16:33:07.989Z,18.77
2018-09-08T16:35:36.780Z,18.79
2018-09-08T16:38:06.166Z,18.78
2018-09-08T16:40:34.973Z,18.74
2018-09-08T16:43:03.967Z,18.70
2018-09-08T16:45:32.730Z,18.73
2018-09-08T16:48:07.823Z,18.68
2018-09-08T16:50:37.017Z,18.66
2018-09-08T16:53:05.911Z,18.64
2018-09-08T16:55:34.946Z,18.61
2018-09-08T16:58:04.221Z,18.55
2018-09-08T17:00:33.326Z,18.50
2018-09-08T17:03:02.526Z,18.45
2018-09-08T17:05:31.648Z,18.42
2018-09-08T17:08:00.357Z,18.34
2018-09-08T17:10:29.092Z,18.38
2018-09-08T17:12:58.162Z,18.38
2018-09-08T17:15:27.572Z,18.37
2018-09-08T17:17:56.295Z,18.30
2018-09-08T17:20:25.565Z,18.28
2018-09-08T17:22:54.601Z,18.25
2018-09-08T17:25:23.710Z,18.19
2018-09-08T17:27:52.677Z,18.19
2018-09-08T17:30:22.115Z,18.18
2018-09-08T17:32:51.126Z,18.18
2018-09-08T17:35:19.905Z,18.15
2018-09-08T17:37:49.167Z,18.14
2018-09-08T17:40:17.863Z,18.12
2018-09-08T17:42:46.950Z,18.11
2018-09-08T17:45:15.989Z,18.12
2018-09-08T17:47:45.204Z,18.14
2018-09-08T17:50:14.146Z,18.12
2018-09-08T17:52:43.202Z,18.07
2018-09-08T17:55:12.195Z,18.00
2018-09-08T17:57:41.331Z,17.98
2018-09-08T18:00:10.392Z,17.96
2018-09-08T18:02:39.800Z,17.93
2018-09-08T18:05:08.793Z,17.92
2018-09-08T18:07:37.839Z,17.91
2018-09-08T18:10:07.406Z,17.87
2018-09-08T18:12:36.165Z,17.81
2018-09-08T18:15:04.971Z,17.77
2018-09-08T18:17:34.603Z,17.76
2018-09-08T18:20:03.679Z,17.77
2018-09-08T18:22:32.793Z,17.78
2018-09-08T18:25:02.080Z,17.77
2018-09-08T18:27:31.108Z,17.76
2018-09-08T18:29:59.858Z,17.77
2018-09-08T18:32:29.211Z,17.75
2018-09-08T18:34:57.971Z,17.75
2018-09-08T18:37:27.326Z,17.72
2018-09-08T18:39:56.115Z,17.71
2018-09-08T18:42:25.233Z,17.69
2018-09-08T18:44:54.015Z,17.68
2018-09-08T18:47:22.731Z,17.65
2018-09-08T18:49:52.233Z,17.60
2018-09-08T18:52:20.950Z,17.58
2018-09-08T18:54:49.696Z,17.56
2018-09-08T18:57:19.840Z,17.52
2018-09-08T18:59:49.174Z,17.48
2018-09-08T19:02:18.758Z,17.46
2018-09-08T19:04:47.575Z,17.43
2018-09-08T19:07:16.396Z,17.41
2018-09-08T19:09:49.516Z,17.36
2018-09-08T19:12:18.459Z,17.32
2018-09-08T19:14:52.357Z,17.27
2018-09-08T19:17:21.547Z,17.22
2018-09-08T19:19:52.085Z,17.21
2018-09-08T19:22:21.090Z,17.19
2018-09-08T19:24:49.875Z,17.16
2018-09-08T19:27:18.710Z,17.14
2018-09-08T19:29:49.465Z,17.11
2018-09-08T19:32:19.283Z,17.06
2018-09-08T19:34:53.130Z,17.02
2018-09-08T19:37:22.116Z,16.94
2018-09-08T19:39:51.265Z,16.88
2018-09-08T19:42:20.037Z,16.87
2018-09-08T19:44:49.127Z,16.85
2018-09-08T19:47:23.223Z,16.83
2018-09-08T19:49:52.617Z,16.80
2018-09-08T19:52:26.928Z,16.77
2018-09-08T19:54:55.807Z,16.78
2018-09-08T19:57:29.715Z,16.72
2018-09-08T19:59:58.778Z,16.69
2018-09-08T20:02:27.858Z,16.67
2018-09-08T20:04:57.262Z,16.63
2018-09-08T20:07:26.049Z,16.55
2018-09-08T20:09:55.050Z,16.50
2018-09-08T20:12:24.171Z,16.50
2018-09-08T20:14:52.910Z,16.47
2018-09-08T20:17:22.289Z,16.44
2018-09-08T20:19:51.049Z,16.41
2018-09-08T20:22:20.097Z,16.40
2018-09-08T20:24:48.867Z,16.38
2018-09-08T20:27:17.835Z,16.37
2018-09-08T20:29:46.895Z,16.37
2018-09-08T20:32:15.893Z,16.37
2018-09-08T20:34:45.098Z,16.36
2018-09-08T20:37:13.801Z,16.35
2018-09-08T20:39:42.631Z,16.32
2018-09-08T20:42:12.046Z,16.29
2018-09-08T20:44:41.013Z,16.25
2018-09-08T20:47:10.418Z,16.24
2018-09-08T20:49:39.754Z,16.23
2018-09-08T20:52:08.573Z,16.20
2018-09-08T20:54:37.631Z,16.19
2018-09-08T20:57:06.425Z,16.18
2018-09-08T20:59:35.476Z,16.16
2018-09-08T21:02:04.280Z,16.15
2018-09-08T21:04:33.182Z,16.14
2018-09-08T21:07:02.298Z,16.12
2018-09-08T21:09:31.217Z,16.11
2018-09-08T21:12:00.140Z,16.09
2018-09-08T21:14:29.266Z,16.10
2018-09-08T21:16:58.579Z,16.08
2018-09-08T21:19:27.387Z,16.03
2018-09-08T21:21:56.540Z,16.02
2018-09-08T21:24:25.771Z,16.02
2018-09-08T21:26:55.074Z,16.02
2018-09-08T21:29:24.249Z,16.00
2018-09-08T21:31:53.068Z,15.98
2018-09-08T21:34:21.884Z,15.99
2018-09-08T21:36:50.871Z,15.98
2018-09-08T21:39:19.769Z,15.97
2018-09-08T21:41:48.727Z,15.98
2018-09-08T21:44:17.680Z,15.96
2018-09-08T21:46:46.586Z,15.92
2018-09-08T21:49:15.324Z,15.88
2018-09-08T21:51:46.035Z,15.85
2018-09-08T21:54:14.984Z,15.85
2018-09-08T21:56:45.859Z,15.83
2018-09-08T21:59:14.959Z,15.80
2018-09-08T22:01:44.296Z,15.79
2018-09-08T22:04:13.548Z,15.77
2018-09-08T22:06:42.522Z,15.76
2018-09-08T22:09:12.068Z,15.76
2018-09-08T22:11:45.295Z,15.77
2018-09-08T22:14:14.178Z,15.77
2018-09-08T22:16:43.260Z,15.74
2018-09-08T22:19:12.358Z,15.67
2018-09-08T22:21:41.376Z,15.63
2018-09-08T22:24:10.262Z,15.61
2018-09-08T22:26:39.648Z,15.56
2018-09-08T22:29:08.907Z,15.53
2018-09-08T22:31:38.648Z,15.49
2018-09-08T22:34:07.406Z,15.47
2018-09-08T22:36:36.271Z,15.46
2018-09-08T22:39:06.878Z,15.42
2018-09-08T22:41:36.648Z,15.36
2018-09-08T22:44:06.555Z,15.36
2018-09-08T22:46:36.886Z,15.34
2018-09-08T22:49:07.040Z,15.30
2018-09-08T22:51:37.429Z,15.26
2018-09-08T22:54:06.513Z,15.22
2018-09-08T22:56:35.306Z,15.22
2018-09-08T22:59:04.071Z,15.15
2018-09-08T23:01:32.821Z,15.12
2018-09-08T23:04:01.799Z,15.13
2018-09-08T23:06:30.492Z,15.12
2018-09-08T23:08:59.507Z,15.12
2018-09-08T23:11:28.292Z,15.14
2018-09-08T23:13:57.083Z,15.15
2018-09-08T23:16:26.561Z,15.14
2018-09-08T23:18:55.767Z,15.15
2018-09-08T23:21:24.707Z,15.11
2018-09-08T23:23:53.572Z,15.06
2018-09-08T23:26:22.306Z,15.02
2018-09-08T23:28:51.301Z,14.95
2018-09-08T23:31:20.716Z,14.90
2018-09-08T23:33:49.454Z,14.86
2018-09-08T23:36:18.520Z,14.85
2018-09-08T23:38:47.422Z,14.84
2018-09-08T23:41:16.209Z,14.79
2018-09-08T23:43:45.553Z,14.78
2018-09-08T23:46:14.274Z,14.75
2018-09-08T23:48:43.424Z,14.75
2018-09-08T23:51:12.430Z,14.75
2018-09-08T23:53:41.536Z,14.76
2018-09-08T23:56:10.370Z,14.72
2018-09-08T23:58:39.728Z,14.66
